createdAt,value
2023-03-20T00:01:55.609Z,7.20
2023-03-20T00:04:23.941Z,7.20
2023-03-20T00:06:52.216Z,7.20
2023-03-20T00:09:20.490Z,7.20
2023-03-20T00:11:49.470Z,7.20
2023-03-20T00:14:20.479Z,7.20
2023-03-20T00:16:49.975Z,7.10
2023-03-20T00:19:19.265Z,7.10
2023-03-20T00:21:47.949Z,7.10
2023-03-20T00:24:16.802Z,7.10
2023-03-20T00:26:45.606Z,7.10
2023-03-20T00:29:16.860Z,7.00
2023-03-20T00:31:46.591Z,7.00
2023-03-20T00:34:19.583Z,7.00
2023-03-20T00:36:47.843Z,7.00
2023-03-20T00:39:16.195Z,6.90
2023-03-20T00:41:45.205Z,7.00
2023-03-20T00:44:23.134Z,6.90
2023-03-20T00:46:54.705Z,6.90
2023-03-20T00:49:24.129Z,6.90
2023-03-20T00:51:52.425Z,6.90
2023-03-20T00:54:20.770Z,7.00
2023-03-20T00:56:51.378Z,7.00
2023-03-20T00:59:21.604Z,7.00
2023-03-20T01:01:49.899Z,7.00
2023-03-20T01:04:20.814Z,7.10
2023-03-20T01:06:49.161Z,7.10
2023-03-20T01:09:17.490Z,7.10
2023-03-20T01:11:45.987Z,7.10
2023-03-20T01:14:16.274Z,7.20
2023-03-20T01:16:44.760Z,7.20
2023-03-20T01:19:14.231Z,7.20
2023-03-20T01:21:44.122Z,7.20
2023-03-20T01:24:12.542Z,7.20
2023-03-20T01:26:42.208Z,7.20
2023-03-20T01:29:17.758Z,7.20
2023-03-20T01:31:46.491Z,7.20
2023-03-20T01:34:16.388Z,7.20
2023-03-20T01:36:47.921Z,7.20
2023-03-20T01:39:16.205Z,7.20
2023-03-20T01:41:45.367Z,7.20
2023-03-20T01:44:19.609Z,7.20
2023-03-20T01:46:48.537Z,7.20
2023-03-20T01:49:53.878Z,7.30
2023-03-20T01:52:23.594Z,7.30
2023-03-20T01:54:51.868Z,7.30
2023-03-20T01:57:21.853Z,7.30
2023-03-20T01:59:51.806Z,7.30
2023-03-20T02:02:22.607Z,7.30
2023-03-20T02:04:53.099Z,7.30
2023-03-20T02:07:23.390Z,7.30
2023-03-20T02:09:51.736Z,7.30
2023-03-20T02:12:20.015Z,7.30
2023-03-20T02:14:48.335Z,7.30
2023-03-20T02:17:16.823Z,7.30
2023-03-20T02:19:49.578Z,7.30
2023-03-20T02:22:41.811Z,7.30
2023-03-20T02:25:42.519Z,7.30
2023-03-20T02:28:33.630Z,7.30
2023-03-20T02:31:45.026Z,7.30
2023-03-20T02:34:34.308Z,7.40
2023-03-20T02:37:24.822Z,7.40
2023-03-20T02:40:00.918Z,7.40
2023-03-20T02:42:33.938Z,7.40
2023-03-20T02:45:05.553Z,7.40
2023-03-20T02:47:36.947Z,7.40
2023-03-20T02:50:09.959Z,7.40
2023-03-20T02:52:42.876Z,7.30
2023-03-20T02:55:16.179Z,7.30
2023-03-20T02:57:49.317Z,7.30
2023-03-20T03:00:20.238Z,7.30
2023-03-20T03:02:50.334Z,7.30
2023-03-20T03:05:20.822Z,7.20
2023-03-20T03:07:51.913Z,7.20
2023-03-20T03:10:22.450Z,7.20
2023-03-20T03:12:50.894Z,7.20
2023-03-20T03:15:32.775Z,7.20
2023-03-20T03:18:01.130Z,7.20
2023-03-20T03:20:31.374Z,7.20
2023-03-20T03:23:02.072Z,7.20
2023-03-20T03:25:31.508Z,7.20
2023-03-20T03:28:03.518Z,7.20
2023-03-20T03:30:32.904Z,7.20
2023-03-20T03:33:11.552Z,7.20
2023-03-20T03:35:40.032Z,7.20
2023-03-20T03:38:18.465Z,7.20
2023-03-20T03:40:47.325Z,7.20
2023-03-20T03:43:18.590Z,7.20
2023-03-20T03:45:48.028Z,7.10
2023-03-20T03:48:17.392Z,7.10
2023-03-20T03:50:48.893Z,7.10
2023-03-20T03:53:20.116Z,7.10
2023-03-20T03:55:51.102Z,7.10
2023-03-20T03:58:20.579Z,7.10
2023-03-20T04:00:50.656Z,7.10
2023-03-20T04:03:19.338Z,7.10
2023-03-20T04:05:47.719Z,7.10
2023-03-20T04:08:16.358Z,7.10
2023-03-20T04:10:46.098Z,7.10
2023-03-20T04:13:14.338Z,7.10
2023-03-20T04:15:42.581Z,7.10
2023-03-20T04:18:11.227Z,7.10
2023-03-20T04:20:39.511Z,7.10
2023-03-20T04:23:07.761Z,7.00
2023-03-20T04:25:36.275Z,7.00
2023-03-20T04:28:06.421Z,7.00
2023-03-20T04:30:34.701Z,7.10
2023-03-20T04:33:02.990Z,7.20
2023-03-20T04:35:31.274Z,7.10
2023-03-20T04:37:59.540Z,7.10
2023-03-20T04:40:28.557Z,7.10
2023-03-20T04:42:56.824Z,7.10
2023-03-20T04:45:26.454Z,7.10
2023-03-20T04:47:54.868Z,7.10
2023-03-20T04:50:23.196Z,7.10
2023-03-20T04:52:51.499Z,7.10
2023-03-20T04:55:19.864Z,7.00
2023-03-20T04:57:48.153Z,7.00
2023-03-20T05:00:17.537Z,7.00
2023-03-20T05:02:47.195Z,7.10
2023-03-20T05:05:15.513Z,7.10
2023-03-20T05:07:43.885Z,7.20
2023-03-20T05:10:12.724Z,7.20
2023-03-20T05:12:40.978Z,7.10
2023-03-20T05:15:10.455Z,7.20
2023-03-20T05:17:38.803Z,7.10
2023-03-20T05:20:09.693Z,7.10
2023-03-20T05:22:37.942Z,7.10
2023-03-20T05:25:07.223Z,7.10
2023-03-20T05:27:35.788Z,7.10
2023-03-20T05:30:04.510Z,7.10
2023-03-20T05:32:32.868Z,7.10
2023-03-20T05:35:01.389Z,7.10
2023-03-20T05:37:31.134Z,7.20
2023-03-20T05:39:59.383Z,7.20
2023-03-20T05:42:27.630Z,7.20
2023-03-20T05:44:55.887Z,7.30
2023-03-20T05:47:26.132Z,7.30
2023-03-20T05:49:54.597Z,7.40
2023-03-20T05:52:22.901Z,7.40
2023-03-20T05:54:52.569Z,7.50
2023-03-20T05:57:20.902Z,7.60
2023-03-20T05:59:49.232Z,7.60
2023-03-20T06:02:17.654Z,7.70
2023-03-20T06:04:46.348Z,7.80
2023-03-20T06:07:14.731Z,7.80
2023-03-20T06:09:43.016Z,7.90
2023-03-20T06:12:12.739Z,7.90
2023-03-20T06:14:41.047Z,7.90
2023-03-20T06:17:09.367Z,7.90
2023-03-20T06:19:38.804Z,8.00
2023-03-20T06:22:07.074Z,8.00
2023-03-20T06:24:36.060Z,8.00
2023-03-20T06:27:04.358Z,8.00
2023-03-20T06:29:34.202Z,8.00
2023-03-20T06:32:02.470Z,8.00
2023-03-20T06:34:31.845Z,8.00
2023-03-20T06:37:00.187Z,8.10
2023-03-20T06:39:29.036Z,8.10
2023-03-20T06:41:57.430Z,8.10
2023-03-20T06:44:27.125Z,8.10
2023-03-20T06:46:56.979Z,8.20
2023-03-20T06:49:25.607Z,8.20
2023-03-20T06:51:53.939Z,8.20
2023-03-20T06:54:22.426Z,8.20
2023-03-20T06:56:50.705Z,8.30
2023-03-20T06:59:19.271Z,8.30
2023-03-20T07:01:47.620Z,8.40
2023-03-20T07:04:17.548Z,8.40
2023-03-20T07:06:46.023Z,8.50
2023-03-20T07:09:14.357Z,8.50
2023-03-20T07:11:43.008Z,8.60
2023-03-20T07:14:11.379Z,8.60
2023-03-20T07:16:39.705Z,8.70
2023-03-20T07:19:08.033Z,8.70
2023-03-20T07:21:39.826Z,8.70
2023-03-20T07:24:08.500Z,8.70
2023-03-20T07:26:36.938Z,8.70
2023-03-20T07:29:05.327Z,8.70
2023-03-20T07:31:33.702Z,8.70
2023-03-20T07:34:02.069Z,8.70
2023-03-20T07:36:30.475Z,8.70
2023-03-20T07:39:00.183Z,8.70
2023-03-20T07:41:28.535Z,8.70
2023-03-20T07:43:56.929Z,8.70
2023-03-20T07:46:25.695Z,8.70
2023-03-20T07:48:54.177Z,8.80
2023-03-20T07:51:22.459Z,8.80
2023-03-20T07:53:51.024Z,8.80
2023-03-20T07:56:21.404Z,8.80
2023-03-20T07:58:52.733Z,8.80
2023-03-20T08:01:21.114Z,8.80
2023-03-20T08:03:49.816Z,8.80
2023-03-20T08:06:18.166Z,8.80
2023-03-20T08:08:46.591Z,8.80
2023-03-20T08:11:14.966Z,8.80
2023-03-20T08:13:44.703Z,8.90
2023-03-20T08:16:13.021Z,8.90
2023-03-20T08:18:42.511Z,8.90
2023-03-20T08:21:10.991Z,8.90
2023-03-20T08:23:39.212Z,9.00
2023-03-20T08:26:07.659Z,9.00
2023-03-20T08:28:47.209Z,9.00
2023-03-20T08:31:17.907Z,9.10
2023-03-20T08:33:46.520Z,9.10
2023-03-20T08:36:15.641Z,9.20
2023-03-20T08:38:44.064Z,9.20
2023-03-20T08:41:12.311Z,9.30
2023-03-20T08:43:40.585Z,9.30
2023-03-20T08:46:08.938Z,9.30
2023-03-20T08:48:38.665Z,9.30
2023-03-20T08:51:07.558Z,9.40
2023-03-20T08:53:35.847Z,9.40
2023-03-20T08:56:04.125Z,9.50
2023-03-20T08:58:32.361Z,9.50
2023-03-20T09:01:05.493Z,9.60
2023-03-20T09:03:33.788Z,9.60
2023-03-20T09:06:03.573Z,9.70
2023-03-20T09:08:32.138Z,9.80
2023-03-20T09:11:00.651Z,9.80
2023-03-20T09:13:28.874Z,9.80
2023-03-20T09:15:57.310Z,9.90
2023-03-20T09:18:25.804Z,9.90
2023-03-20T09:20:54.118Z,9.90
2023-03-20T09:23:23.864Z,9.90
2023-03-20T09:25:52.122Z,10.00
2023-03-20T09:28:20.692Z,10.00
2023-03-20T09:30:49.003Z,10.00
2023-03-20T09:33:18.622Z,10.00
2023-03-20T09:35:47.073Z,10.00
2023-03-20T09:38:15.603Z,10.00
2023-03-20T09:40:52.242Z,10.00
2023-03-20T09:43:28.649Z,10.00
2023-03-20T09:46:01.342Z,10.00
2023-03-20T09:48:32.023Z,10.00
2023-03-20T09:51:02.847Z,10.00
2023-03-20T09:53:32.928Z,10.10
2023-03-20T09:56:02.589Z,10.10
2023-03-20T09:58:32.570Z,10.10
2023-03-20T10:01:01.658Z,10.00
2023-03-20T10:03:30.924Z,10.10
2023-03-20T10:06:01.705Z,10.10
2023-03-20T10:08:31.933Z,10.10
2023-03-20T10:11:06.176Z,10.10
2023-03-20T10:13:52.997Z,10.20
2023-03-20T10:16:25.038Z,10.20
2023-03-20T10:18:58.252Z,10.20
2023-03-20T10:21:29.206Z,10.30
2023-03-20T10:24:01.007Z,10.30
2023-03-20T10:26:30.760Z,10.40
2023-03-20T10:28:59.609Z,10.40
2023-03-20T10:31:34.660Z,10.50
2023-03-20T10:34:19.052Z,10.50
2023-03-20T10:36:55.995Z,10.50
2023-03-20T10:39:31.677Z,10.50
2023-03-20T10:42:03.418Z,10.60
2023-03-20T10:44:34.320Z,10.60
2023-03-20T10:47:03.282Z,10.60
2023-03-20T10:49:34.923Z,10.70
2023-03-20T10:52:04.724Z,10.80
2023-03-20T10:54:34.126Z,10.80
2023-03-20T10:57:04.078Z,10.90
2023-03-20T10:59:35.473Z,11.10
2023-03-20T11:02:03.762Z,11.10
2023-03-20T11:04:32.022Z,11.20
2023-03-20T11:07:02.794Z,11.40
2023-03-20T11:09:32.681Z,11.70
2023-03-20T11:12:02.699Z,11.90
2023-03-20T11:14:36.376Z,11.90
2023-03-20T11:17:05.000Z,11.90
2023-03-20T11:19:34.620Z,11.90
2023-03-20T11:22:08.294Z,11.80
2023-03-20T11:24:38.130Z,11.90
2023-03-20T11:27:08.039Z,12.00
2023-03-20T11:29:37.910Z,12.20
2023-03-20T11:32:18.261Z,12.40
2023-03-20T11:34:46.654Z,12.60
2023-03-20T11:37:26.032Z,12.70
2023-03-20T11:40:01.042Z,12.90
2023-03-20T11:42:30.479Z,12.90
2023-03-20T11:45:01.439Z,12.80
2023-03-20T11:47:30.545Z,12.80
2023-03-20T11:49:59.639Z,12.80
2023-03-20T11:52:29.628Z,12.80
2023-03-20T11:54:58.503Z,12.80
2023-03-20T11:57:34.798Z,12.80
2023-03-20T12:00:06.711Z,12.70
2023-03-20T12:02:35.084Z,12.80
2023-03-20T12:05:03.448Z,12.90
2023-03-20T12:07:32.317Z,12.70
2023-03-20T12:10:01.223Z,12.80
2023-03-20T12:12:37.000Z,12.60
2023-03-20T12:15:09.747Z,12.60
2023-03-20T12:17:42.574Z,12.60
2023-03-20T12:20:29.377Z,12.60
2023-03-20T12:23:01.721Z,12.60
2023-03-20T12:25:31.372Z,12.70
2023-03-20T12:28:04.399Z,12.70
2023-03-20T12:30:40.128Z,12.60
2023-03-20T12:33:09.900Z,12.60
2023-03-20T12:35:39.140Z,12.60
2023-03-20T12:38:12.511Z,12.60
2023-03-20T12:40:43.650Z,12.60
2023-03-20T12:43:15.278Z,12.60
2023-03-20T12:45:48.617Z,12.60
2023-03-20T12:48:34.817Z,12.60
2023-03-20T12:51:05.201Z,12.60
2023-03-20T12:53:40.804Z,12.60
2023-03-20T12:56:16.605Z,12.50
2023-03-20T12:58:46.445Z,12.50
2023-03-20T13:01:18.539Z,12.50
2023-03-20T13:03:56.542Z,12.50
2023-03-20T13:06:29.385Z,12.50
2023-03-20T13:09:26.648Z,12.50
2023-03-20T13:11:58.516Z,12.50
2023-03-20T13:14:28.887Z,12.50
2023-03-20T13:17:00.123Z,12.60
2023-03-20T13:19:29.917Z,12.60
2023-03-20T13:22:00.159Z,12.60
2023-03-20T13:24:38.304Z,12.60
2023-03-20T13:27:24.419Z,12.60
2023-03-20T13:29:55.051Z,12.60
2023-03-20T13:32:29.453Z,12.60
2023-03-20T13:35:10.140Z,12.60
2023-03-20T13:37:39.237Z,12.60
2023-03-20T13:40:13.054Z,12.60
2023-03-20T13:42:44.250Z,12.50
2023-03-20T13:45:25.746Z,12.60
2023-03-20T13:47:56.027Z,12.50
2023-03-20T13:50:33.986Z,12.50
2023-03-20T13:53:05.026Z,12.50
2023-03-20T13:55:37.219Z,12.60
2023-03-20T13:58:12.532Z,12.50
2023-03-20T14:00:42.631Z,12.50
2023-03-20T14:03:19.264Z,12.50
2023-03-20T14:05:47.895Z,12.50
2023-03-20T14:08:36.959Z,12.50
2023-03-20T14:11:38.609Z,12.50
2023-03-20T14:14:09.848Z,12.40
2023-03-20T14:16:38.064Z,12.40
2023-03-20T14:19:10.586Z,12.40
2023-03-20T14:21:40.474Z,12.40
2023-03-20T14:24:09.449Z,12.40
2023-03-20T14:26:38.436Z,12.40
2023-03-20T14:29:22.756Z,12.30
2023-03-20T14:31:52.324Z,12.30
2023-03-20T14:34:24.784Z,12.30
2023-03-20T14:36:57.693Z,12.30
2023-03-20T14:39:36.249Z,12.30
2023-03-20T14:42:17.987Z,12.30
2023-03-20T14:44:51.978Z,12.30
2023-03-20T14:47:25.831Z,12.20
2023-03-20T14:49:57.045Z,12.20
2023-03-20T14:52:33.483Z,12.20
2023-03-20T14:55:17.147Z,12.10
2023-03-20T14:57:56.081Z,12.00
2023-03-20T15:00:26.010Z,12.00
2023-03-20T15:02:55.173Z,11.90
2023-03-20T15:05:29.442Z,11.90
2023-03-20T15:07:57.913Z,11.80
2023-03-20T15:10:26.602Z,11.80
2023-03-20T15:12:55.745Z,11.70
2023-03-20T15:15:25.929Z,11.70
2023-03-20T15:17:54.177Z,11.60
2023-03-20T15:20:23.534Z,11.60
2023-03-20T15:22:56.337Z,11.60
2023-03-20T15:25:29.385Z,11.60
2023-03-20T15:27:57.604Z,11.60
2023-03-20T15:30:25.956Z,11.50
2023-03-20T15:32:54.871Z,11.50
2023-03-20T15:35:24.405Z,11.50
2023-03-20T15:37:54.214Z,11.50
2023-03-20T15:40:24.927Z,11.50
2023-03-20T15:42:57.580Z,11.50
2023-03-20T15:45:28.200Z,11.50
2023-03-20T15:48:03.324Z,11.50
2023-03-20T15:50:34.351Z,11.50
2023-03-20T15:53:04.231Z,11.50
2023-03-20T15:55:32.506Z,11.40
2023-03-20T15:58:01.903Z,11.40
2023-03-20T16:00:31.528Z,11.40
2023-03-20T16:03:00.585Z,11.40
2023-03-20T16:05:29.540Z,11.40
2023-03-20T16:07:57.794Z,11.40
2023-03-20T16:10:30.391Z,11.40
2023-03-20T16:12:58.684Z,11.40
2023-03-20T16:15:29.827Z,11.40
2023-03-20T16:18:00.620Z,11.40
2023-03-20T16:20:29.916Z,11.40
2023-03-20T16:23:03.417Z,11.40
2023-03-20T16:25:33.084Z,11.30
2023-03-20T16:28:01.418Z,11.30
2023-03-20T16:30:32.290Z,11.30
2023-03-20T16:33:01.582Z,11.30
2023-03-20T16:35:32.483Z,11.30
2023-03-20T16:38:01.613Z,11.30
2023-03-20T16:40:34.009Z,11.20
2023-03-20T16:43:11.650Z,11.20
2023-03-20T16:45:44.042Z,11.20
2023-03-20T16:48:29.205Z,11.20
2023-03-20T16:50:59.412Z,11.20
2023-03-20T16:53:30.000Z,11.10
2023-03-20T16:55:59.962Z,11.10
2023-03-20T16:58:30.179Z,11.00
2023-03-20T17:01:02.560Z,10.90
2023-03-20T17:03:31.700Z,10.90
2023-03-20T17:06:00.929Z,10.90
2023-03-20T17:08:31.568Z,10.80
2023-03-20T17:11:04.600Z,10.70
2023-03-20T17:13:32.825Z,10.70
2023-03-20T17:16:02.057Z,10.60
2023-03-20T17:18:30.411Z,10.50
2023-03-20T17:20:58.677Z,10.50
2023-03-20T17:23:27.046Z,10.40
2023-03-20T17:25:55.350Z,10.40
2023-03-20T17:28:25.609Z,10.40
2023-03-20T17:30:53.886Z,10.30
2023-03-20T17:33:22.303Z,10.30
2023-03-20T17:35:50.690Z,10.20
2023-03-20T17:38:21.462Z,10.10
2023-03-20T17:40:49.997Z,10.10
2023-03-20T17:43:18.537Z,10.00
2023-03-20T17:45:48.622Z,9.90
2023-03-20T17:48:18.043Z,9.80
2023-03-20T17:50:46.467Z,9.80
2023-03-20T17:53:18.701Z,9.80
2023-03-20T17:55:47.002Z,9.80
2023-03-20T17:58:16.848Z,9.70
2023-03-20T18:00:45.478Z,9.70
2023-03-20T18:03:15.431Z,9.70
2023-03-20T18:05:43.824Z,9.70
2023-03-20T18:08:14.970Z,9.70
2023-03-20T18:10:43.496Z,9.70
2023-03-20T18:13:11.768Z,9.70
2023-03-20T18:15:40.433Z,9.70
2023-03-20T18:18:09.068Z,9.80
2023-03-20T18:20:39.646Z,9.80
2023-03-20T18:23:07.990Z,9.80
2023-03-20T18:25:36.314Z,9.80
2023-03-20T18:28:06.721Z,9.80
2023-03-20T18:30:36.222Z,9.80
2023-03-20T18:33:05.292Z,9.80
2023-03-20T18:35:33.682Z,9.80
2023-03-20T18:38:03.412Z,9.80
2023-03-20T18:40:32.784Z,9.80
2023-03-20T18:43:01.236Z,9.80
2023-03-20T18:45:30.243Z,9.80
2023-03-20T18:47:58.913Z,9.80
2023-03-20T18:50:28.280Z,9.90
2023-03-20T18:52:57.310Z,9.90
2023-03-20T18:55:27.541Z,9.90
2023-03-20T18:57:56.053Z,9.90
2023-03-20T19:00:27.134Z,9.90
2023-03-20T19:02:56.321Z,9.90
2023-03-20T19:05:25.017Z,9.90
2023-03-20T19:07:53.453Z,9.90
2023-03-20T19:10:30.071Z,9.90
2023-03-20T19:12:58.452Z,10.00
2023-03-20T19:15:27.374Z,9.90
2023-03-20T19:17:55.819Z,9.90
2023-03-20T19:20:42.277Z,9.80
2023-03-20T19:23:11.119Z,9.80
2023-03-20T19:25:41.065Z,9.80
2023-03-20T19:28:16.754Z,9.80
2023-03-20T19:30:45.577Z,9.80
2023-03-20T19:33:13.869Z,9.80
2023-03-20T19:36:01.342Z,9.80
2023-03-20T19:38:30.483Z,9.80
2023-03-20T19:41:00.366Z,9.70
2023-03-20T19:43:30.161Z,9.70
2023-03-20T19:45:59.361Z,9.70
2023-03-20T19:48:43.318Z,9.70
2023-03-20T19:51:18.157Z,9.60
2023-03-20T19:53:46.612Z,9.70
2023-03-20T19:56:17.014Z,9.60
2023-03-20T19:58:45.361Z,9.60
2023-03-20T20:01:17.150Z,9.60
2023-03-20T20:03:46.100Z,9.60
2023-03-20T20:06:14.746Z,9.60
2023-03-20T20:08:48.468Z,9.60
2023-03-20T20:11:18.784Z,9.60
2023-03-20T20:14:04.810Z,9.60
2023-03-20T20:16:35.813Z,9.50
2023-03-20T20:19:04.140Z,9.60
2023-03-20T20:22:17.113Z,9.60
2023-03-20T20:24:20.791Z,9.60
2023-03-20T20:26:59.963Z,9.50
2023-03-20T20:29:31.679Z,9.50
2023-03-20T20:32:01.097Z,9.50
2023-03-20T20:38:02.815Z,9.50
2023-03-20T20:40:07.436Z,9.50
2023-03-20T20:42:38.322Z,9.60
2023-03-20T20:45:07.750Z,9.60
2023-03-20T20:47:36.147Z,9.60
2023-03-20T20:50:05.101Z,9.60
2023-03-20T20:52:36.156Z,9.70
2023-03-20T20:55:21.761Z,9.60
2023-03-20T20:57:52.740Z,9.70
2023-03-20T21:00:27.543Z,9.60
2023-03-20T21:02:59.900Z,9.60
2023-03-20T21:05:28.280Z,9.60
2023-03-20T21:07:57.893Z,9.60
2023-03-20T21:10:26.380Z,9.60
2023-03-20T21:12:59.818Z,9.60
2023-03-20T21:15:28.437Z,9.60
2023-03-20T21:18:01.771Z,9.60
2023-03-20T21:20:30.666Z,9.50
2023-03-20T21:23:07.087Z,9.60
2023-03-20T21:25:40.503Z,9.50
2023-03-20T21:28:11.480Z,9.50
2023-03-20T21:30:54.441Z,9.50
2023-03-20T21:33:30.363Z,9.50
2023-03-20T21:35:58.699Z,9.50
2023-03-20T21:39:01.857Z,9.50
2023-03-20T21:41:15.604Z,9.40
2023-03-20T21:43:47.207Z,9.40
2023-03-20T21:52:41.503Z,9.40
2023-03-20T21:55:37.061Z,9.40
2023-03-20T21:58:21.387Z,9.30
2023-03-20T22:03:14.116Z,9.20
2023-03-20T22:06:25.359Z,9.20
2023-03-20T22:12:07.870Z,9.20
2023-03-20T22:17:53.077Z,9.20
2023-03-20T22:26:18.133Z,9.20
2023-03-20T22:31:48.257Z,9.10
2023-03-20T22:42:51.437Z,9.00
2023-03-20T22:45:14.163Z,9.00
2023-03-20T22:47:42.892Z,8.90
2023-03-20T22:50:12.838Z,8.90
2023-03-20T22:52:49.047Z,8.90
2023-03-20T22:55:18.283Z,8.90
2023-03-20T22:57:59.992Z,8.90
2023-03-20T23:00:34.764Z,8.90
2023-03-20T23:03:19.582Z,8.90
2023-03-20T23:05:54.105Z,8.90
2023-03-20T23:08:22.432Z,8.90
2023-03-20T23:10:51.385Z,8.90
2023-03-20T23:13:22.274Z,8.90
2023-03-20T23:15:51.692Z,8.90
2023-03-20T23:18:19.953Z,8.90
2023-03-20T23:20:48.228Z,8.80
2023-03-20T23:23:17.916Z,8.80
2023-03-20T23:25:46.417Z,8.80
2023-03-20T23:28:15.025Z,8.80
2023-03-20T23:30:51.773Z,8.80
2023-03-20T23:33:24.867Z,8.80
2023-03-20T23:36:01.187Z,8.80
2023-03-20T23:38:34.798Z,8.80
2023-03-20T23:41:03.045Z,8.80
2023-03-20T23:43:31.602Z,8.80
2023-03-20T23:45:59.914Z,8.70
2023-03-20T23:48:28.268Z,8.80
2023-03-20T23:50:56.642Z,8.80
2023-03-20T23:53:24.945Z,8.80
2023-03-20T23:55:56.240Z,8.80
2023-03-20T23:58:24.827Z,8.80
